Time;durP1;ratioP1;P1;durP2;ratioP2;P2;SDS_P1;SDS_P2;PMS_P1;PMS_P2;Temp;Humidity;BMP_temperature;BMP_pressure;BME280_temperature;BME280_humidity;BME280_pressure;Samples;Min_cycle;Max_cycle;Signal;HPM_P1;HPM_P2
2023/01/18 00:02:13;;;;;;;14.27;5.18;;;;;;;-1.61;100.00;98713.53;7399984;19;20166;-64
2023/01/18 00:04:42;;;;;;;15.70;7.10;;;;;;;-1.59;100.00;98712.84;7398257;19;20257;-65
2023/01/18 00:07:12;;;;;;;14.43;6.30;;;;;;;-1.59;100.00;98712.84;7399061;19;20218;-64
2023/01/18 00:09:44;;;;;;;12.60;4.88;;;;;;;-1.57;100.00;98716.34;7396941;19;20689;-65
2023/01/18 00:12:13;;;;;;;17.52;7.50;;;;;;;-1.59;100.00;98720.41;7398882;19;20409;-64
2023/01/18 00:14:42;;;;;;;16.77;7.15;;;;;;;-1.55;100.00;98719.81;7397531;19;20197;-65
2023/01/18 00:17:12;;;;;;;10.38;5.68;;;;;;;-1.57;100.00;98707.88;7399196;19;20130;-64
2023/01/18 00:19:41;;;;;;;10.52;5.28;;;;;;;-1.60;100.00;98716.16;7397361;19;20707;-65
2023/01/18 00:22:11;;;;;;;13.13;6.60;;;;;;;-1.60;100.00;98711.09;7399130;19;20138;-64
2023/01/18 00:24:40;;;;;;;19.90;7.70;;;;;;;-1.61;100.00;98694.16;7396320;19;20182;-64
2023/01/18 00:27:13;;;;;;;17.38;8.70;;;;;;;-1.56;100.00;98707.97;7399150;19;20138;-64
2023/01/18 00:29:42;;;;;;;14.57;6.18;;;;;;;-1.65;100.00;98712.47;7395011;19;20186;-65
2023/01/18 00:32:13;;;;;;;22.60;4.78;;;;;;;-1.67;100.00;98719.13;7398142;19;20620;-65
2023/01/18 00:34:42;;;;;;;23.08;10.48;;;;;;;-1.66;100.00;98720.84;7395893;19;20698;-64
2023/01/18 00:37:11;;;;;;;18.80;8.00;;;;;;;-1.71;100.00;98720.59;7398775;19;20135;-65
2023/01/18 00:39:41;;;;;;;20.30;8.40;;;;;;;-1.67;100.00;98719.13;7395407;19;20616;-65
2023/01/18 00:44:55;;;;;;;22.60;9.65;;;;;;;-1.65;100.00;98718.41;7393964;19;20209;-65
2023/01/18 00:47:25;;;;;;;25.27;8.95;;;;;;;-1.68;100.00;98722.44;7398987;19;20157;-64
2023/01/18 00:49:55;;;;;;;15.38;6.80;;;;;;;-1.69;100.00;98725.75;7391693;19;20190;-64
2023/01/18 00:52:24;;;;;;;17.10;7.30;;;;;;;-1.71;100.00;98738.28;7395330;19;20135;-64
2023/01/18 00:54:54;;;;;;;27.17;10.13;;;;;;;-1.70;100.00;98724.00;7387663;19;20187;-65
2023/01/18 00:57:26;;;;;;;23.38;10.15;;;;;;;-1.65;100.00;98727.66;7394561;19;20135;-63
2023/01/18 00:59:55;;;;;;;27.60;10.80;;;;;;;-1.63;100.00;98721.03;7389627;19;20563;-64
2023/01/18 01:02:25;;;;;;;22.20;9.40;;;;;;;-1.66;100.00;98716.69;7396323;19;20139;-65
2023/01/18 01:07:36;;;;;;;8.65;4.40;;;;;;;-1.69;100.00;98728.28;7391947;19;20162;-65
2023/01/18 01:10:08;;;;;;;17.95;8.38;;;;;;;-1.66;100.00;98736.91;7390107;19;20198;-64
2023/01/18 01:26:12;;;;;;;16.48;6.50;;;;;;;-1.67;100.00;98734.28;7392875;19;20146;-64
2023/01/18 01:28:46;;;;;;;19.08;8.23;;;;;;;-1.69;100.00;98740.91;7389985;19;20162;-65
2023/01/18 01:31:17;;;;;;;27.85;10.82;;;;;;;-1.69;100.00;98735.88;7391828;19;20143;-66
2023/01/18 01:33:50;;;;;;;26.20;11.43;;;;;;;-1.67;100.00;98746.94;7390155;19;20214;-65
2023/01/18 01:36:24;;;;;;;21.98;9.45;;;;;;;-1.66;100.00;98751.19;7393498;19;20127;-64
2023/01/18 01:38:54;;;;;;;22.75;9.20;;;;;;;-1.67;100.00;98754.53;7387845;19;20201;-66
2023/01/18 01:41:26;;;;;;;20.40;8.40;;;;;;;-1.67;100.00;98752.00;7391932;19;20139;-65
2023/01/18 01:43:59;;;;;;;15.13;6.97;;;;;;;-1.65;100.00;98748.78;7389438;19;20190;-65
2023/01/18 01:46:34;;;;;;;19.67;9.50;;;;;;;-1.64;100.00;98750.50;7393570;19;20134;-66
2023/01/18 01:49:07;;;;;;;22.67;9.82;;;;;;;-1.61;100.00;98764.09;7389702;19;20201;-64
2023/01/18 01:51:38;;;;;;;18.38;8.10;;;;;;;-1.63;100.00;98766.56;7391733;19;20134;-64
2023/01/18 01:54:12;;;;;;;17.27;6.68;;;;;;;-1.64;100.00;98767.38;7390858;19;20194;-64
2023/01/18 01:56:42;;;;;;;21.98;8.10;;;;;;;-1.66;100.00;98771.44;7393723;19;20131;-65
2023/01/18 01:59:14;;;;;;;24.23;10.52;;;;;;;-1.67;100.00;98762.09;7390112;19;20194;-64
2023/01/18 02:01:44;;;;;;;26.40;10.75;;;;;;;-1.67;100.00;98770.59;7392902;19;20159;-64
2023/01/18 02:04:14;;;;;;;23.17;10.02;;;;;;;-1.57;100.00;98768.56;7389745;19;20221;-64
2023/01/18 02:06:44;;;;;;;19.60;8.23;;;;;;;-1.63;100.00;98771.63;7393432;19;20131;-65
2023/01/18 02:09:21;;;;;;;22.10;9.50;;;;;;;-1.58;100.00;98769.38;7386339;19;20689;-64
2023/01/18 02:11:51;;;;;;;19.55;9.27;;;;;;;-1.58;100.00;98780.38;7390996;19;20127;-64
2023/01/18 02:14:26;;;;;;;14.98;6.68;;;;;;;-1.60;100.00;98781.06;7392229;19;20218;-65
2023/01/18 02:17:06;;;;;;;23.20;9.05;;;;;;;-1.58;100.00;98775.31;7392589;19;20130;-64
2023/01/18 02:19:49;;;;;;;22.17;9.05;;;;;;;-1.57;100.00;98781.22;7389363;19;20202;-65
2023/01/18 02:22:28;;;;;;;14.63;5.95;;;;;;;-1.57;100.00;98787.16;7391460;19;20584;-65
2023/01/18 02:25:16;;;;;;;16.60;7.03;;;;;;;-1.57;100.00;98789.69;7389463;19;20198;-65
2023/01/18 02:27:49;;;;;;;19.25;8.40;;;;;;;-1.62;100.00;98783.50;7392045;19;20167;-65
2023/01/18 02:30:31;;;;;;;22.13;8.32;;;;;;;-1.65;100.00;98793.41;7389915;19;20194;-64
2023/01/18 02:33:06;;;;;;;31.27;9.68;;;;;;;-1.61;100.00;98791.94;7391622;19;20510;-65
2023/01/18 02:35:45;;;;;;;20.25;9.05;;;;;;;-1.61;100.00;98786.88;7389288;19;20197;-64
2023/01/18 02:38:18;;;;;;;15.70;8.52;;;;;;;-1.65;100.00;98788.34;7391184;19;20167;-65
2023/01/18 02:41:01;;;;;;;15.15;7.18;;;;;;;-1.69;100.00;98788.97;7389726;19;20205;-65
2023/01/18 02:46:32;;;;;;;18.20;7.80;;;;;;;-1.71;100.00;98780.41;7391671;19;20162;-65
2023/01/18 02:49:09;;;;;;;18.40;7.15;;;;;;;-1.72;100.00;98783.72;7387947;19;20194;-65
2023/01/18 02:51:38;;;;;;;18.75;8.05;;;;;;;-1.72;100.00;98791.31;7390848;19;20150;-64
2023/01/18 02:54:10;;;;;;;22.30;10.30;;;;;;;-1.78;100.00;98792.69;7388952;19;21139;-65
2023/01/18 02:56:41;;;;;;;27.70;10.18;;;;;;;-1.81;100.00;98791.63;7394469;19;20139;-65
2023/01/18 02:59:13;;;;;;;19.88;9.20;;;;;;;-1.83;100.00;98794.09;7390821;19;20194;-65
2023/01/18 03:01:49;;;;;;;23.02;11.40;;;;;;;-1.84;100.00;98797.38;7395150;19;20145;-65
2023/01/18 03:04:22;;;;;;;25.10;10.63;;;;;;;-1.84;100.00;98797.38;7390594;19;20217;-65
2023/01/18 03:06:56;;;;;;;25.33;12.32;;;;;;;-1.86;100.00;98798.94;7393468;19;20139;-65
2023/01/18 03:09:26;;;;;;;22.58;11.38;;;;;;;-1.84;100.00;98797.38;7389337;19;20731;-65
2023/01/18 03:11:59;;;;;;;24.02;11.45;;;;;;;-1.93;100.00;98800.25;7392394;19;20149;-65
2023/01/18 03:14:38;;;;;;;31.02;11.90;;;;;;;-1.94;100.00;98790.03;7390338;19;20196;-65
2023/01/18 03:17:13;;;;;;;27.90;12.80;;;;;;;-1.97;100.00;98783.16;7393773;19;20135;-65
2023/01/18 03:25:30;;;;;;;27.05;12.23;;;;;;;-1.99;100.00;98786.34;7400089;19;20738;-65
2023/01/18 03:33:47;;;;;;;29.88;12.88;;;;;;;-2.05;100.00;98797.84;7406003;19;20678;-65
2023/01/18 03:36:20;;;;;;;28.40;12.02;;;;;;;-2.07;100.00;98798.53;7407610;19;20142;-65
2023/01/18 03:38:54;;;;;;;25.02;12.18;;;;;;;-2.06;100.00;98797.75;7403130;19;20208;-66
2023/01/18 03:41:26;;;;;;;26.23;12.02;;;;;;;-2.14;100.00;98797.31;7408014;19;20146;-65
2023/01/18 03:43:58;;;;;;;24.77;12.20;;;;;;;-2.09;100.00;98793.41;7404005;19;20212;-65
2023/01/18 03:46:28;;;;;;;24.52;11.05;;;;;;;-2.12;100.00;98789.78;7408154;19;20134;-66
2023/01/18 03:49:01;;;;;;;24.80;12.27;;;;;;;-2.14;100.00;98789.72;7402517;19;20226;-65
2023/01/18 03:51:46;;;;;;;27.83;12.15;;;;;;;-2.13;100.00;98798.16;7407632;19;20163;-65
2023/01/18 03:54:19;;;;;;;33.97;12.85;;;;;;;-2.11;100.00;98794.94;7403010;19;20204;-65
2023/01/18 03:56:53;;;;;;;29.58;12.60;;;;;;;-2.14;100.00;98797.31;7406606;19;20162;-66
2023/01/18 03:59:22;;;;;;;28.75;12.30;;;;;;;-2.14;100.00;98802.34;7402266;19;20198;-65
2023/01/18 04:01:52;;;;;;;28.20;12.85;;;;;;;-2.17;100.00;98805.56;7406262;19;20155;-66
2023/01/18 04:04:24;;;;;;;29.33;13.43;;;;;;;-2.11;100.00;98792.41;7402935;19;20193;-65
2023/01/18 04:06:53;;;;;;;32.53;13.25;;;;;;;-2.06;100.00;98791.03;7406157;19;20135;-65
2023/01/18 04:09:23;;;;;;;26.80;12.00;;;;;;;-2.11;100.00;98782.31;7402137;19;20202;-66
2023/01/18 04:11:52;;;;;;;33.80;12.50;;;;;;;-2.07;100.00;98781.72;7405232;19;20131;-65
2023/01/18 04:14:22;;;;;;;25.38;12.93;;;;;;;-2.00;100.00;98780.41;7403832;19;20190;-65
2023/01/18 04:16:51;;;;;;;25.35;12.02;;;;;;;-1.96;100.00;98784.00;7406072;19;20134;-65
2023/01/18 04:19:23;;;;;;;24.42;12.00;;;;;;;-2.00;100.00;98794.72;7402035;19;20197;-65
2023/01/18 04:21:53;;;;;;;26.85;11.65;;;;;;;-2.00;100.00;98800.63;7405260;19;20134;-65
2023/01/18 04:24:22;;;;;;;25.92;12.70;;;;;;;-2.00;100.00;98799.78;7401603;19;20222;-65
2023/01/18 04:26:51;;;;;;;28.20;12.20;;;;;;;-1.98;100.00;98803.28;7406032;19;20135;-65
2023/01/18 04:29:21;;;;;;;28.67;12.05;;;;;;;-1.99;100.00;98799.88;7401132;19;20233;-65
2023/01/18 04:31:50;;;;;;;28.98;12.05;;;;;;;-2.08;100.00;98797.66;7399567;19;20146;-65
2023/01/18 04:34:21;;;;;;;26.30;11.65;;;;;;;-2.07;100.00;98799.41;7394804;19;20190;-65
2023/01/18 04:36:53;;;;;;;25.38;11.80;;;;;;;-2.01;100.00;98803.94;7399250;19;20145;-65
2023/01/18 04:39:22;;;;;;;24.55;11.60;;;;;;;-2.04;100.00;98809.69;7393463;19;20198;-65
2023/01/18 04:41:52;;;;;;;26.70;11.80;;;;;;;-2.00;100.00;98809.91;7400287;19;20139;-65
2023/01/18 04:44:22;;;;;;;30.10;13.00;;;;;;;-1.97;100.00;98807.53;7394047;19;20197;-65
2023/01/18 04:46:52;;;;;;;22.65;11.65;;;;;;;-1.91;100.00;98813.84;7398590;19;20134;-65
2023/01/18 04:49:22;;;;;;;27.65;11.77;;;;;;;-1.95;100.00;98816.13;7392949;19;20617;-65
2023/01/18 04:51:55;;;;;;;23.42;11.35;;;;;;;-1.95;100.00;98821.16;7397967;19;20139;-65
2023/01/18 04:54:24;;;;;;;26.95;12.50;;;;;;;-1.84;100.00;98827.72;7394526;19;20563;-65
2023/01/18 04:56:53;;;;;;;23.75;11.85;;;;;;;-1.39;100.00;98809.28;7398832;19;20624;-65
2023/01/18 04:59:23;;;;;;;23.48;11.85;;;;;;;-1.12;100.00;98806.56;7392727;19;20571;-65
2023/01/18 05:01:53;;;;;;;29.65;13.25;;;;;;;-0.94;100.00;98800.81;7397683;19;20130;-65
2023/01/18 05:04:22;;;;;;;30.75;13.07;;;;;;;-0.79;100.00;98795.69;7394229;19;20190;-65
2023/01/18 05:06:55;;;;;;;31.25;13.32;;;;;;;-1.07;100.00;98810.25;7397611;19;20159;-65
2023/01/18 05:09:24;;;;;;;33.97;12.75;;;;;;;-1.17;100.00;98810.50;7392042;19;20238;-65
2023/01/18 05:11:54;;;;;;;27.80;14.15;;;;;;;-0.92;100.00;98806.81;7397174;19;20662;-65
2023/01/18 05:14:23;;;;;;;35.88;16.02;;;;;;;-0.75;100.00;98805.22;7394143;19;20190;-65
2023/01/18 05:16:53;;;;;;;31.05;13.93;;;;;;;-0.90;100.00;98812.84;7397387;19;20135;-65
2023/01/18 05:19:22;;;;;;;28.85;14.20;;;;;;;-0.97;100.00;98811.63;7391757;19;20202;-65
2023/01/18 05:21:54;;;;;;;35.55;15.82;;;;;;;-0.91;100.00;98817.03;7396957;19;20134;-65
2023/01/18 05:24:24;;;;;;;27.92;13.88;;;;;;;-1.34;100.00;98834.84;7393217;19;20187;-65
2023/01/18 05:26:55;;;;;;;32.70;14.13;;;;;;;-1.80;100.00;98847.34;7397570;19;20130;-65
2023/01/18 05:29:25;;;;;;;33.15;13.82;;;;;;;-1.95;100.00;98854.03;7392368;19;20575;-65
2023/01/18 05:31:54;;;;;;;37.70;14.70;;;;;;;-2.10;100.00;98848.91;7396427;19;20158;-65
2023/01/18 05:34:24;;;;;;;28.02;13.35;;;;;;;-2.18;100.00;98849.31;7392103;19;20197;-65
2023/01/18 05:36:56;;;;;;;25.65;11.27;;;;;;;-2.27;100.00;98850.41;7397264;19;20131;-65
2023/01/18 05:39:25;;;;;;;28.25;13.60;;;;;;;-2.34;100.00;98854.19;7392365;19;20230;-65
2023/01/18 05:41:55;;;;;;;27.52;12.15;;;;;;;-2.43;100.00;98854.47;7396275;19;20135;-65
2023/01/18 05:44:28;;;;;;;28.52;13.32;;;;;;;-2.37;100.00;98859.91;7390569;19;20198;-65
2023/01/18 05:46:57;;;;;;;30.77;13.60;;;;;;;-2.36;100.00;98866.72;7396849;19;20168;-65
2023/01/18 05:49:27;;;;;;;28.35;13.48;;;;;;;-2.45;100.00;98871.19;7391030;19;20232;-64
2023/01/18 05:51:59;;;;;;;28.08;13.43;;;;;;;-2.41;100.00;98867.22;7395865;19;20600;-65
2023/01/18 05:54:28;;;;;;;32.00;13.95;;;;;;;-2.46;100.00;98869.44;7391273;19;20205;-65
2023/01/18 05:56:58;;;;;;;29.08;12.60;;;;;;;-2.50;100.00;98867.50;7396532;19;20160;-65
2023/01/18 05:59:27;;;;;;;27.42;12.63;;;;;;;-2.50;100.00;98872.56;7391368;19;20202;-65
2023/01/18 06:01:56;;;;;;;34.25;14.13;;;;;;;-2.44;100.00;98878.00;7395605;19;20147;-65
2023/01/18 06:04:26;;;;;;;29.92;14.43;;;;;;;-2.20;100.00;98870.22;7389031;19;20549;-66
2023/01/18 06:06:55;;;;;;;30.67;13.05;;;;;;;-2.25;100.00;98876.63;7395936;19;20519;-65
2023/01/18 06:09:28;;;;;;;28.48;13.27;;;;;;;-2.21;100.00;98876.03;7391197;19;20212;-65
2023/01/18 06:11:58;;;;;;;34.20;14.50;;;;;;;-2.18;100.00;98881.28;7395560;19;20142;-65
2023/01/18 06:14:27;;;;;;;35.60;15.00;;;;;;;-2.25;100.00;98882.53;7390604;19;20200;-65
2023/01/18 06:16:57;;;;;;;31.85;15.00;;;;;;;-2.29;100.00;98884.78;7395597;19;20146;-65
2023/01/18 06:19:26;;;;;;;43.40;14.73;;;;;;;-2.33;100.00;98888.75;7390824;19;20205;-66
2023/01/18 06:21:56;;;;;;;34.08;15.25;;;;;;;-2.06;100.00;98876.97;7394690;19;20134;-64
2023/01/18 06:24:28;;;;;;;35.40;14.55;;;;;;;-2.15;100.00;98885.66;7391463;19;20201;-65
2023/01/18 06:26:58;;;;;;;33.05;13.88;;;;;;;-2.24;100.00;98891.00;7395313;19;20146;-66
2023/01/18 06:29:27;;;;;;;34.53;14.13;;;;;;;-2.40;100.00;98895.09;7390669;19;20216;-65
2023/01/18 06:31:57;;;;;;;30.52;14.75;;;;;;;-2.35;100.00;98895.38;7394687;19;20492;-65
2023/01/18 06:34:26;;;;;;;37.80;15.05;;;;;;;-2.45;100.00;98898.97;7390918;19;20567;-65
2023/01/18 06:36:58;;;;;;;30.27;14.55;;;;;;;-2.34;100.00;98894.59;7395391;19;20623;-65
2023/01/18 06:39:30;;;;;;;32.78;13.95;;;;;;;-2.22;100.00;98905.47;7390371;19;20230;-63
2023/01/18 06:42:00;;;;;;;30.95;12.98;;;;;;;-2.37;100.00;98907.91;7394424;19;20139;-64
2023/01/18 06:44:29;;;;;;;36.67;15.27;;;;;;;-2.41;100.00;98903.44;7391021;19;20970;-64
2023/01/18 06:46:58;;;;;;;26.17;12.93;;;;;;;-2.37;100.00;98905.38;7393702;19;20149;-65
2023/01/18 06:49:28;;;;;;;36.58;14.23;;;;;;;-2.41;100.00;98905.09;7389765;19;20208;-64
2023/01/18 06:51:58;;;;;;;30.85;14.23;;;;;;;-2.43;100.00;98914.25;7394463;19;20169;-64
2023/01/18 06:54:30;;;;;;;27.42;13.43;;;;;;;-2.40;100.00;98915.31;7389637;19;20194;-65
2023/01/18 06:56:59;;;;;;;29.17;13.88;;;;;;;-2.42;100.00;98916.00;7394844;19;20222;-65
2023/01/18 06:59:29;;;;;;;29.65;12.73;;;;;;;-2.33;100.00;98922.50;7389605;19;20275;-65
2023/01/18 07:01:58;;;;;;;30.23;13.48;;;;;;;-2.25;100.00;98924.63;7393587;19;20490;-66
2023/01/18 07:04:31;;;;;;;27.88;13.40;;;;;;;-1.99;100.00;98917.81;7390647;19;20555;-65
2023/01/18 07:07:03;;;;;;;31.60;13.75;;;;;;;-2.15;100.00;98923.56;7394046;19;20139;-64
2023/01/18 07:09:36;;;;;;;36.78;15.52;;;;;;;-2.14;100.00;98923.66;7389596;19;20208;-65
2023/01/18 07:12:06;;;;;;;33.53;14.15;;;;;;;-2.21;100.00;98936.69;7393575;19;20615;-64
2023/01/18 07:14:35;;;;;;;25.98;13.20;;;;;;;-2.21;100.00;98941.75;7389519;19;20190;-65
2023/01/18 07:17:05;;;;;;;32.15;14.23;;;;;;;-2.24;100.00;98947.47;7394147;19;20147;-64
2023/01/18 07:19:34;;;;;;;31.67;13.52;;;;;;;-2.32;100.00;98946.97;7389217;19;20201;-65
2023/01/18 07:22:04;;;;;;;34.17;13.75;;;;;;;-2.42;100.00;98952.22;7393425;19;20774;-65
2023/01/18 07:24:36;;;;;;;33.38;14.40;;;;;;;-2.42;100.00;98952.22;7389429;19;20186;-66
2023/01/18 07:27:05;;;;;;;32.83;14.98;;;;;;;-2.35;100.00;98956.88;7393806;19;20134;-65
2023/01/18 07:29:35;;;;;;;29.23;15.45;;;;;;;-2.33;100.00;98964.56;7389227;19;20204;-65
2023/01/18 07:32:05;;;;;;;29.20;13.88;;;;;;;-2.31;100.00;98963.88;7392998;19;20157;-65
2023/01/18 07:34:34;;;;;;;29.80;13.30;;;;;;;-2.16;100.00;98965.63;7389220;19;20198;-65
2023/01/18 07:37:04;;;;;;;35.08;15.00;;;;;;;-1.87;100.00;98956.50;7393804;19;20138;-65
2023/01/18 07:39:36;;;;;;;35.50;15.27;;;;;;;-1.65;100.00;98947.69;7389441;19;20218;-66
2023/01/18 07:42:06;;;;;;;34.10;14.82;;;;;;;-1.74;100.00;98942.09;7392735;19;20142;-64
2023/01/18 07:44:36;;;;;;;36.28;15.73;;;;;;;-1.65;100.00;98947.69;7389469;19;20662;-65
2023/01/18 07:47:06;;;;;;;37.15;16.67;;;;;;;-1.81;100.00;98954.34;7392758;19;20159;-64
2023/01/18 07:49:36;;;;;;;39.17;14.88;;;;;;;-1.94;100.00;98962.81;7387844;19;20666;-64
2023/01/18 07:52:05;;;;;;;31.23;13.80;;;;;;;-1.86;100.00;98959.91;7392345;19;20167;-64
2023/01/18 07:54:38;;;;;;;31.27;14.80;;;;;;;-1.67;100.00;98961.91;7388839;19;20195;-65
2023/01/18 07:57:07;;;;;;;29.15;13.65;;;;;;;-2.00;100.00;98977.59;7392871;19;20159;-64
2023/01/18 07:59:38;;;;;;;29.95;13.10;;;;;;;-2.05;100.00;98978.97;7388502;19;20206;-64
2023/01/18 08:02:11;;;;;;;29.65;13.73;;;;;;;-1.86;100.00;98986.06;7392708;19;20138;-65
2023/01/18 08:04:42;;;;;;;33.30;14.18;;;;;;;-1.97;100.00;98984.50;7389406;19;20687;-65
2023/01/18 08:07:11;;;;;;;28.77;13.20;;;;;;;-1.95;100.00;98998.13;7396080;19;20935;-65
2023/01/18 08:09:43;;;;;;;33.03;13.98;;;;;;;-2.05;100.00;99006.78;7395548;19;20226;-65
2023/01/18 08:12:16;;;;;;;31.67;15.25;;;;;;;-2.15;100.00;99012.91;7399931;19;20820;-65
2023/01/18 08:14:46;;;;;;;35.45;17.27;;;;;;;-2.17;100.00;99009.38;7395518;19;20690;-64
2023/01/18 08:17:16;;;;;;;29.45;14.52;;;;;;;-2.25;100.00;99008.03;7398324;19;20134;-64
2023/01/18 08:19:45;;;;;;;35.42;14.05;;;;;;;-2.32;100.00;99015.19;7395444;19;20201;-64
2023/01/18 08:22:15;;;;;;;30.95;14.02;;;;;;;-2.25;100.00;99013.94;7400267;19;20150;-64
2023/01/18 08:24:47;;;;;;;28.38;14.23;;;;;;;-2.21;100.00;99015.88;7391721;19;20194;-65
2023/01/18 08:27:16;;;;;;;33.30;14.80;;;;;;;-2.22;100.00;99015.78;7399206;19;20607;-64
2023/01/18 08:29:47;;;;;;;31.52;14.25;;;;;;;-2.19;100.00;99028.63;7394860;19;20198;-66
2023/01/18 08:32:19;;;;;;;32.72;14.98;;;;;;;-2.14;100.00;99027.28;7398814;19;20145;-66
2023/01/18 08:34:48;;;;;;;37.65;15.13;;;;;;;-2.19;100.00;99031.16;7393205;19;20190;-65
2023/01/18 08:37:18;;;;;;;36.80;14.80;;;;;;;-2.19;100.00;99036.22;7399405;19;20155;-65
2023/01/18 08:39:50;;;;;;;34.88;15.35;;;;;;;-2.18;100.00;99035.44;7392226;19;20194;-66
2023/01/18 08:42:19;;;;;;;32.10;14.55;;;;;;;-2.21;100.00;99037.78;7398710;19;20135;-65
2023/01/18 08:44:49;;;;;;;28.70;13.15;;;;;;;-2.15;100.00;99048.28;7393371;19;20197;-65
2023/01/18 08:47:19;;;;;;;35.25;15.10;;;;;;;-2.08;100.00;99045.38;7399329;19;20134;-65
2023/01/18 08:49:48;;;;;;;32.20;14.65;;;;;;;-2.00;100.00;99052.56;7392775;19;20198;-66
2023/01/18 08:52:17;;;;;;;34.60;15.05;;;;;;;-2.00;100.00;99072.78;7398168;19;20187;-67
2023/01/18 08:54:49;;;;;;;32.67;15.13;;;;;;;-1.93;100.00;99070.78;7390806;19;20186;-66
2023/01/18 08:57:19;;;;;;;37.15;16.25;;;;;;;-1.92;100.00;99076.69;7398556;19;20146;-65
2023/01/18 08:59:51;;;;;;;33.80;14.23;;;;;;;-1.84;100.00;99080.56;7393516;19;20182;-64
2023/01/18 09:02:20;;;;;;;33.28;14.65;;;;;;;-1.75;100.00;99081.97;7398564;19;20135;-64
2023/01/18 09:04:50;;;;;;;27.25;15.27;;;;;;;-1.66;100.00;99092.66;7393405;19;20190;-65
2023/01/18 09:07:19;;;;;;;31.13;15.15;;;;;;;-1.60;100.00;99100.63;7397549;19;20632;-65
2023/01/18 09:09:52;;;;;;;33.17;15.10;;;;;;;-1.51;100.00;99096.16;7391476;19;20569;-65
2023/01/18 09:12:24;;;;;;;31.15;15.57;;;;;;;-1.41;100.00;99100.16;7395777;19;20138;-64
2023/01/18 09:14:53;;;;;;;39.15;16.80;;;;;;;-1.45;100.00;99110.00;7392276;19;20209;-66
2023/01/18 09:17:23;;;;;;;33.85;16.77;;;;;;;-1.42;100.00;99112.69;7397093;19;20158;-65
2023/01/18 09:19:53;;;;;;;36.53;15.90;;;;;;;-1.35;100.00;99112.31;7392552;19;20662;-65
2023/01/18 09:22:23;;;;;;;34.92;15.98;;;;;;;-1.20;100.00;99111.50;7397071;19;20143;-65
2023/01/18 09:24:56;;;;;;;39.47;16.58;;;;;;;-1.28;100.00;99124.56;7391407;19;20270;-65
2023/01/18 09:27:26;;;;;;;28.98;14.40;;;;;;;-1.19;100.00;99128.47;7397538;19;20134;-65
2023/01/18 09:29:55;;;;;;;33.00;15.52;;;;;;;-1.18;100.00;99120.09;7392469;19;20186;-66
2023/01/18 09:32:26;;;;;;;35.15;15.38;;;;;;;-1.12;100.00;99126.38;7396934;19;20159;-66
2023/01/18 09:34:55;;;;;;;31.48;15.63;;;;;;;-1.04;100.00;99133.63;7388045;19;20186;-65
2023/01/18 09:37:25;;;;;;;36.78;16.92;;;;;;;-0.97;100.00;99149.25;7395005;19;20154;-65
2023/01/18 09:39:59;;;;;;;42.45;17.85;;;;;;;-0.94;100.00;99146.03;7391989;19;20190;-65
2023/01/18 09:42:37;;;;;;;38.88;17.58;;;;;;;-0.86;100.00;99149.91;7396453;19;20682;-65
2023/01/18 09:45:08;;;;;;;40.75;17.35;;;;;;;-1.07;100.00;99162.16;7394506;19;20586;-65
2023/01/18 09:47:45;;;;;;;37.03;16.92;;;;;;;-1.11;100.00;99160.19;7395392;19;20135;-64
2023/01/18 09:50:17;;;;;;;45.47;16.98;;;;;;;-1.14;100.00;99167.56;7392613;19;20185;-65
2023/01/18 09:52:53;;;;;;;54.80;20.90;;;;;;;-1.19;100.00;99168.97;7396826;19;20496;-65
2023/01/18 09:55:32;;;;;;;33.22;16.48;;;;;;;-1.17;100.00;99172.47;7389480;19;20209;-66
2023/01/18 09:58:21;;;;;;;39.40;18.52;;;;;;;-1.18;100.00;99175.78;7395713;19;20174;-66
2023/01/18 10:00:51;;;;;;;35.45;17.17;;;;;;;-1.13;100.00;99174.41;7393080;19;20205;-65
2023/01/18 10:03:23;;;;;;;37.42;14.95;;;;;;;-1.13;100.00;99179.47;7396146;19;20160;-65
2023/01/18 10:06:07;;;;;;;33.67;16.02;;;;;;;-1.07;100.00;99182.41;7395233;19;20203;-64
2023/01/18 10:08:38;;;;;;;38.40;16.85;;;;;;;-0.95;100.00;99179.75;7393046;19;20174;-65
2023/01/18 10:11:16;;;;;;;32.03;15.75;;;;;;;-0.90;100.00;99182.56;7395523;19;20631;-64
2023/01/18 10:13:53;;;;;;;33.92;15.63;;;;;;;-0.88;100.00;99186.09;7393465;19;20509;-64
2023/01/18 10:16:24;;;;;;;33.47;15.93;;;;;;;-0.82;100.00;99191.53;7393875;19;20163;-65
2023/01/18 10:18:54;;;;;;;32.13;15.48;;;;;;;-0.72;100.00;99178.63;7391441;19;20202;-65
2023/01/18 10:21:34;;;;;;;30.80;15.38;;;;;;;-0.61;100.00;99188.56;7395060;19;20650;-65
2023/01/18 10:24:23;;;;;;;32.53;15.13;;;;;;;-0.58;100.00;99193.81;7390114;19;20197;-65
2023/01/18 10:27:02;;;;;;;37.58;16.02;;;;;;;-0.60;100.00;99192.84;7394779;19;20139;-65
2023/01/18 10:29:43;;;;;;;33.55;15.27;;;;;;;-0.49;100.00;99191.84;7388863;19;20213;-65
2023/01/18 10:32:16;;;;;;;33.80;14.80;;;;;;;-0.38;100.00;99202.63;7394554;19;20130;-64
2023/01/18 10:34:49;;;;;;;31.10;14.98;;;;;;;-0.33;100.00;99202.91;7392178;19;20190;-64
2023/01/18 10:37:25;;;;;;;25.52;14.00;;;;;;;-0.38;100.00;99204.28;7395299;19;20150;-64
2023/01/18 10:39:57;;;;;;;29.52;13.18;;;;;;;-0.45;100.00;99210.66;7389983;19;20186;-64
2023/01/18 10:42:32;;;;;;;33.25;15.05;;;;;;;-0.37;100.00;99222.13;7394748;19;20143;-65
2023/01/18 10:45:02;;;;;;;33.50;14.60;;;;;;;-0.34;100.00;99217.25;7390342;19;20197;-67
2023/01/18 10:47:32;;;;;;;26.15;12.18;;;;;;;-0.25;100.00;99226.19;7394689;19;20146;-66
2023/01/18 10:50:02;;;;;;;35.67;15.73;;;;;;;-0.10;100.00;99226.22;7389523;19;20190;-67
2023/01/18 10:52:33;;;;;;;24.38;11.13;;;;;;;-0.28;100.00;99226.88;7394511;19;20147;-62
2023/01/18 10:55:06;;;;;;;45.35;10.60;;;;;;;-0.14;100.00;99231.09;7385922;19;20190;-60
2023/01/18 10:57:43;;;;;;;34.05;13.07;;;;;;;0.02;100.00;99226.97;7395054;19;20141;-62
2023/01/18 11:00:25;;;;;;;24.67;11.75;;;;;;;0.10;100.00;99242.66;7390397;19;20194;-61
2023/01/18 11:02:56;;;;;;;13.55;6.68;;;;;;;-0.10;100.00;99251.59;7394297;19;20130;-62
2023/01/18 11:05:31;;;;;;;16.92;7.85;;;;;;;-0.04;100.00;99254.50;7390194;19;20190;-63
2023/01/18 11:08:14;;;;;;;20.55;10.30;;;;;;;0.12;100.00;99251.22;7392540;19;20178;-64
2023/01/18 11:10:44;;;;;;;25.13;11.30;;;;;;;0.18;100.00;99248.16;7390186;19;20196;-63
2023/01/18 11:13:32;;;;;;;23.10;10.20;;;;;;;0.08;100.00;99267.91;7394114;19;20139;-64
2023/01/18 11:16:11;;;;;;;33.08;10.60;;;;;;;0.20;100.00;99259.28;7391992;19;20184;-62
2023/01/18 11:18:57;;;;;;;20.60;10.85;;;;;;;0.29;100.00;99266.56;7392839;19;20174;-64
2023/01/18 11:21:31;;;;;;;21.25;11.13;;;;;;;0.28;100.00;99269.88;7393966;19;20139;-64
2023/01/18 11:24:07;;;;;;;23.48;10.57;;;;;;;0.15;100.00;99273.34;7388513;19;20218;-62
2023/01/18 11:26:37;;;;;;;22.95;10.90;;;;;;;0.17;100.00;99276.84;7394654;19;20135;-62
2023/01/18 11:29:14;;;;;;;26.85;11.45;;;;;;;0.30;100.00;99279.31;7388999;19;20611;-64
2023/01/18 11:31:47;;;;;;;23.70;11.25;;;;;;;0.22;100.00;99278.00;7393723;19;20587;-64
2023/01/18 11:34:29;;;;;;;25.95;10.32;;;;;;;0.13;100.00;99275.78;7389007;19;20598;-64
2023/01/18 11:36:59;;;;;;;22.05;9.88;;;;;;;0.10;100.00;99279.03;7392724;19;20135;-64
2023/01/18 11:39:32;;;;;;;22.63;10.40;;;;;;;0.10;100.00;99280.69;7388385;19;20226;-64
2023/01/18 11:42:21;;;;;;;17.90;8.90;;;;;;;0.06;100.00;99272.00;7398674;19;20139;-64
2023/01/18 11:45:01;;;;;;;25.10;10.65;;;;;;;0.17;100.00;99277.75;7396434;19;20204;-64
2023/01/18 11:47:35;;;;;;;24.40;10.60;;;;;;;0.24;100.00;99268.81;7400593;19;20483;-64
2023/01/18 11:50:13;;;;;;;19.83;10.40;;;;;;;0.33;100.00;99274.44;7395772;19;20197;-63
2023/01/18 11:52:53;;;;;;;21.70;10.65;;;;;;;0.23;100.00;99275.56;7397485;19;20807;-65
2023/01/18 11:55:30;;;;;;;19.73;10.32;;;;;;;0.20;100.00;99277.03;7394707;19;20186;-65
2023/01/18 11:58:00;;;;;;;20.30;10.27;;;;;;;0.28;100.00;99268.22;7397543;19;20184;-64
2023/01/18 12:00:39;;;;;;;22.35;11.15;;;;;;;0.34;100.00;99268.59;7396384;19;20190;-65
2023/01/18 12:03:41;;;;;;;23.20;10.82;;;;;;;0.31;100.00;99265.84;7399390;19;20127;-64
2023/01/18 12:06:19;;;;;;;22.80;12.55;;;;;;;0.49;100.00;99277.88;7399228;19;20887;-65
2023/01/18 12:09:03;;;;;;;20.13;10.75;;;;;;;0.47;100.00;99276.91;7394226;19;20202;-65